sensor_id;sensor_type;location;lat;lon;timestamp;P1;durP1;ratioP1;P2;durP2;ratioP2
11006;SDS011;8186;57.652;11.968;2022-11-20T00:01:31;1.03;;;1.00;;
11006;SDS011;8186;57.652;11.968;2022-11-20T00:03:59;1.17;;;1.07;;
11006;SDS011;8186;57.652;11.968;2022-11-20T00:06:28;1.30;;;1.20;;
11006;SDS011;8186;57.652;11.968;2022-11-20T00:08:57;1.77;;;1.30;;
11006;SDS011;8186;57.652;11.968;2022-11-20T00:11:26;1.30;;;1.20;;
11006;SDS011;8186;57.652;11.968;2022-11-20T00:13:54;1.30;;;1.20;;
11006;SDS011;8186;57.652;11.968;2022-11-20T00:16:23;1.63;;;1.10;;
11006;SDS011;8186;57.652;11.968;2022-11-20T00:18:51;1.27;;;1.17;;
11006;SDS011;8186;57.652;11.968;2022-11-20T00:21:19;1.23;;;1.00;;
11006;SDS011;8186;57.652;11.968;2022-11-20T00:23:48;1.43;;;1.00;;
11006;SDS011;8186;57.652;11.968;2022-11-20T00:26:16;2.00;;;1.03;;
11006;SDS011;8186;57.652;11.968;2022-11-20T00:28:48;1.07;;;0.83;;
11006;SDS011;8186;57.652;11.968;2022-11-20T00:31:16;1.27;;;1.17;;
11006;SDS011;8186;57.652;11.968;2022-11-20T00:33:43;1.20;;;1.10;;
11006;SDS011;8186;57.652;11.968;2022-11-20T00:36:11;0.97;;;0.93;;
11006;SDS011;8186;57.652;11.968;2022-11-20T00:38:39;1.23;;;1.07;;
11006;SDS011;8186;57.652;11.968;2022-11-20T00:41:11;1.40;;;1.20;;
11006;SDS011;8186;57.652;11.968;2022-11-20T00:43:39;2.10;;;1.30;;
11006;SDS011;8186;57.652;11.968;2022-11-20T00:46:08;1.47;;;1.13;;
11006;SDS011;8186;57.652;11.968;2022-11-20T00:48:36;1.67;;;1.17;;
11006;SDS011;8186;57.652;11.968;2022-11-20T00:51:05;2.77;;;1.20;;
11006;SDS011;8186;57.652;11.968;2022-11-20T00:53:32;1.07;;;0.90;;
11006;SDS011;8186;57.652;11.968;2022-11-20T00:56:00;1.67;;;1.20;;
11006;SDS011;8186;57.652;11.968;2022-11-20T00:58:30;1.40;;;1.10;;
11006;SDS011;8186;57.652;11.968;2022-11-20T01:01:01;1.37;;;0.90;;
11006;SDS011;8186;57.652;11.968;2022-11-20T01:03:30;1.37;;;1.13;;
11006;SDS011;8186;57.652;11.968;2022-11-20T01:05:59;1.70;;;1.00;;
11006;SDS011;8186;57.652;11.968;2022-11-20T01:08:28;1.27;;;1.17;;
11006;SDS011;8186;57.652;11.968;2022-11-20T01:10:58;1.23;;;1.13;;
11006;SDS011;8186;57.652;11.968;2022-11-20T01:13:26;1.43;;;1.00;;
11006;SDS011;8186;57.652;11.968;2022-11-20T01:16:12;1.17;;;0.80;;
11006;SDS011;8186;57.652;11.968;2022-11-20T01:18:40;1.30;;;0.90;;
11006;SDS011;8186;57.652;11.968;2022-11-20T01:21:09;2.07;;;1.00;;
11006;SDS011;8186;57.652;11.968;2022-11-20T01:23:38;1.10;;;0.90;;
11006;SDS011;8186;57.652;11.968;2022-11-20T01:26:10;1.13;;;0.90;;
11006;SDS011;8186;57.652;11.968;2022-11-20T01:28:38;1.23;;;1.00;;
11006;SDS011;8186;57.652;11.968;2022-11-20T01:31:15;1.37;;;1.03;;
11006;SDS011;8186;57.652;11.968;2022-11-20T01:33:44;1.87;;;1.13;;
11006;SDS011;8186;57.652;11.968;2022-11-20T01:36:12;2.10;;;1.17;;
11006;SDS011;8186;57.652;11.968;2022-11-20T01:38:39;1.40;;;1.30;;
11006;SDS011;8186;57.652;11.968;2022-11-20T01:41:07;0.90;;;0.90;;
11006;SDS011;8186;57.652;11.968;2022-11-20T01:43:35;1.20;;;0.90;;
11006;SDS011;8186;57.652;11.968;2022-11-20T01:46:06;1.17;;;1.07;;
11006;SDS011;8186;57.652;11.968;2022-11-20T01:48:43;1.97;;;1.10;;
11006;SDS011;8186;57.652;11.968;2022-11-20T01:51:16;1.40;;;0.83;;
11006;SDS011;8186;57.652;11.968;2022-11-20T01:53:46;1.33;;;1.23;;
11006;SDS011;8186;57.652;11.968;2022-11-20T01:56:13;1.50;;;1.40;;
11006;SDS011;8186;57.652;11.968;2022-11-20T01:58:42;1.30;;;1.20;;
11006;SDS011;8186;57.652;11.968;2022-11-20T02:01:11;1.40;;;1.10;;
11006;SDS011;8186;57.652;11.968;2022-11-20T02:03:41;1.83;;;1.20;;
11006;SDS011;8186;57.652;11.968;2022-11-20T02:06:10;2.50;;;1.17;;
11006;SDS011;8186;57.652;11.968;2022-11-20T02:08:40;1.37;;;1.17;;
11006;SDS011;8186;57.652;11.968;2022-11-20T02:11:08;1.20;;;1.10;;
11006;SDS011;8186;57.652;11.968;2022-11-20T02:13:38;1.20;;;1.10;;
11006;SDS011;8186;57.652;11.968;2022-11-20T02:16:11;1.30;;;1.20;;
11006;SDS011;8186;57.652;11.968;2022-11-20T02:18:42;2.50;;;1.20;;
11006;SDS011;8186;57.652;11.968;2022-11-20T02:21:14;1.37;;;1.27;;
11006;SDS011;8186;57.652;11.968;2022-11-20T02:24:02;1.40;;;1.30;;
11006;SDS011;8186;57.652;11.968;2022-11-20T02:26:31;1.37;;;1.23;;
11006;SDS011;8186;57.652;11.968;2022-11-20T02:29:02;1.10;;;1.10;;
11006;SDS011;8186;57.652;11.968;2022-11-20T02:31:33;1.40;;;1.30;;
11006;SDS011;8186;57.652;11.968;2022-11-20T02:34:03;2.07;;;1.10;;
11006;SDS011;8186;57.652;11.968;2022-11-20T02:36:30;1.67;;;1.20;;
11006;SDS011;8186;57.652;11.968;2022-11-20T02:39:02;1.50;;;1.40;;
11006;SDS011;8186;57.652;11.968;2022-11-20T02:41:31;1.60;;;1.40;;
11006;SDS011;8186;57.652;11.968;2022-11-20T02:43:59;1.30;;;1.20;;
11006;SDS011;8186;57.652;11.968;2022-11-20T02:46:26;1.73;;;1.20;;
11006;SDS011;8186;57.652;11.968;2022-11-20T02:48:53;1.27;;;1.17;;
11006;SDS011;8186;57.652;11.968;2022-11-20T02:51:20;1.57;;;1.47;;
11006;SDS011;8186;57.652;11.968;2022-11-20T02:53:50;2.50;;;1.93;;
11006;SDS011;8186;57.652;11.968;2022-11-20T02:56:18;1.40;;;1.30;;
11006;SDS011;8186;57.652;11.968;2022-11-20T02:58:46;1.30;;;1.20;;
11006;SDS011;8186;57.652;11.968;2022-11-20T03:01:14;1.90;;;1.33;;
11006;SDS011;8186;57.652;11.968;2022-11-20T03:03:41;2.40;;;1.47;;
11006;SDS011;8186;57.652;11.968;2022-11-20T03:06:08;1.50;;;1.30;;
11006;SDS011;8186;57.652;11.968;2022-11-20T03:08:35;1.83;;;1.50;;
11006;SDS011;8186;57.652;11.968;2022-11-20T03:11:03;1.30;;;1.03;;
11006;SDS011;8186;57.652;11.968;2022-11-20T03:13:33;1.73;;;1.30;;
11006;SDS011;8186;57.652;11.968;2022-11-20T03:16:05;1.50;;;1.33;;
11006;SDS011;8186;57.652;11.968;2022-11-20T03:18:35;2.07;;;1.43;;
11006;SDS011;8186;57.652;11.968;2022-11-20T03:21:03;1.60;;;1.50;;
11006;SDS011;8186;57.652;11.968;2022-11-20T03:23:33;1.37;;;1.27;;
11006;SDS011;8186;57.652;11.968;2022-11-20T03:26:07;1.50;;;1.40;;
11006;SDS011;8186;57.652;11.968;2022-11-20T03:28:39;2.13;;;1.57;;
11006;SDS011;8186;57.652;11.968;2022-11-20T03:31:07;1.70;;;1.50;;
11006;SDS011;8186;57.652;11.968;2022-11-20T03:33:38;1.60;;;1.33;;
11006;SDS011;8186;57.652;11.968;2022-11-20T03:36:10;1.40;;;1.20;;
11006;SDS011;8186;57.652;11.968;2022-11-20T03:38:38;1.40;;;1.30;;
11006;SDS011;8186;57.652;11.968;2022-11-20T03:41:06;1.30;;;1.20;;
11006;SDS011;8186;57.652;11.968;2022-11-20T03:43:35;2.03;;;1.30;;
11006;SDS011;8186;57.652;11.968;2022-11-20T03:46:04;1.50;;;1.40;;
11006;SDS011;8186;57.652;11.968;2022-11-20T03:48:31;1.70;;;1.60;;
11006;SDS011;8186;57.652;11.968;2022-11-20T03:51:09;1.90;;;1.30;;
11006;SDS011;8186;57.652;11.968;2022-11-20T03:53:40;2.10;;;1.40;;
11006;SDS011;8186;57.652;11.968;2022-11-20T03:56:08;1.57;;;1.40;;
11006;SDS011;8186;57.652;11.968;2022-11-20T03:58:36;1.87;;;1.50;;
11006;SDS011;8186;57.652;11.968;2022-11-20T04:01:07;1.63;;;1.10;;
11006;SDS011;8186;57.652;11.968;2022-11-20T04:03:35;1.27;;;1.13;;
11006;SDS011;8186;57.652;11.968;2022-11-20T04:06:03;1.40;;;1.30;;
11006;SDS011;8186;57.652;11.968;2022-11-20T04:08:31;1.70;;;1.50;;
11006;SDS011;8186;57.652;11.968;2022-11-20T04:11:07;1.67;;;1.40;;
11006;SDS011;8186;57.652;11.968;2022-11-20T04:13:35;1.50;;;1.40;;
11006;SDS011;8186;57.652;11.968;2022-11-20T04:16:03;1.60;;;1.50;;
11006;SDS011;8186;57.652;11.968;2022-11-20T04:18:34;1.40;;;1.30;;
11006;SDS011;8186;57.652;11.968;2022-11-20T04:21:02;1.90;;;1.50;;
11006;SDS011;8186;57.652;11.968;2022-11-20T04:23:31;2.17;;;1.50;;
11006;SDS011;8186;57.652;11.968;2022-11-20T04:26:00;2.23;;;1.73;;
11006;SDS011;8186;57.652;11.968;2022-11-20T04:28:28;2.23;;;1.40;;
11006;SDS011;8186;57.652;11.968;2022-11-20T04:31:01;1.50;;;1.40;;
11006;SDS011;8186;57.652;11.968;2022-11-20T04:33:30;1.87;;;1.33;;
11006;SDS011;8186;57.652;11.968;2022-11-20T04:36:01;1.83;;;1.60;;
11006;SDS011;8186;57.652;11.968;2022-11-20T04:38:29;1.70;;;1.60;;
11006;SDS011;8186;57.652;11.968;2022-11-20T04:40:57;2.10;;;1.73;;
11006;SDS011;8186;57.652;11.968;2022-11-20T04:43:25;2.10;;;1.73;;
11006;SDS011;8186;57.652;11.968;2022-11-20T04:45:52;1.97;;;1.63;;
11006;SDS011;8186;57.652;11.968;2022-11-20T04:48:20;1.67;;;1.53;;
11006;SDS011;8186;57.652;11.968;2022-11-20T04:50:48;2.37;;;1.50;;
11006;SDS011;8186;57.652;11.968;2022-11-20T04:53:15;1.77;;;1.47;;
11006;SDS011;8186;57.652;11.968;2022-11-20T04:55:42;1.50;;;1.40;;
11006;SDS011;8186;57.652;11.968;2022-11-20T04:58:10;2.50;;;1.67;;
11006;SDS011;8186;57.652;11.968;2022-11-20T05:00:37;1.37;;;1.27;;
11006;SDS011;8186;57.652;11.968;2022-11-20T05:03:04;1.57;;;1.40;;
11006;SDS011;8186;57.652;11.968;2022-11-20T05:05:32;1.50;;;1.40;;
11006;SDS011;8186;57.652;11.968;2022-11-20T05:08:01;1.40;;;1.30;;
11006;SDS011;8186;57.652;11.968;2022-11-20T05:10:28;1.87;;;1.50;;
11006;SDS011;8186;57.652;11.968;2022-11-20T05:12:56;1.57;;;1.47;;
11006;SDS011;8186;57.652;11.968;2022-11-20T05:15:23;3.23;;;1.60;;
11006;SDS011;8186;57.652;11.968;2022-11-20T05:17:54;2.53;;;2.33;;
11006;SDS011;8186;57.652;11.968;2022-11-20T05:20:21;1.70;;;1.60;;
11006;SDS011;8186;57.652;11.968;2022-11-20T05:22:48;1.60;;;1.50;;
11006;SDS011;8186;57.652;11.968;2022-11-20T05:25:16;2.20;;;1.70;;
11006;SDS011;8186;57.652;11.968;2022-11-20T05:27:43;1.97;;;1.60;;
11006;SDS011;8186;57.652;11.968;2022-11-20T05:30:12;2.83;;;1.77;;
11006;SDS011;8186;57.652;11.968;2022-11-20T05:32:39;4.23;;;1.90;;
11006;SDS011;8186;57.652;11.968;2022-11-20T05:35:07;1.60;;;1.50;;
11006;SDS011;8186;57.652;11.968;2022-11-20T05:37:36;1.53;;;1.43;;
11006;SDS011;8186;57.652;11.968;2022-11-20T05:40:03;3.93;;;1.73;;
11006;SDS011;8186;57.652;11.968;2022-11-20T05:42:33;1.67;;;1.50;;
11006;SDS011;8186;57.652;11.968;2022-11-20T05:45:01;1.67;;;1.40;;
11006;SDS011;8186;57.652;11.968;2022-11-20T05:47:31;2.03;;;1.60;;
11006;SDS011;8186;57.652;11.968;2022-11-20T05:49:59;1.77;;;1.67;;
11006;SDS011;8186;57.652;11.968;2022-11-20T05:52:27;1.60;;;1.47;;
11006;SDS011;8186;57.652;11.968;2022-11-20T05:54:55;1.97;;;1.77;;
11006;SDS011;8186;57.652;11.968;2022-11-20T05:57:22;1.67;;;1.57;;
11006;SDS011;8186;57.652;11.968;2022-11-20T05:59:50;1.90;;;1.70;;
11006;SDS011;8186;57.652;11.968;2022-11-20T06:02:17;1.63;;;1.50;;
11006;SDS011;8186;57.652;11.968;2022-11-20T06:04:44;1.73;;;1.57;;
11006;SDS011;8186;57.652;11.968;2022-11-20T06:07:11;2.70;;;1.80;;
11006;SDS011;8186;57.652;11.968;2022-11-20T06:09:39;4.53;;;1.77;;
11006;SDS011;8186;57.652;11.968;2022-11-20T06:12:06;2.20;;;1.60;;
11006;SDS011;8186;57.652;11.968;2022-11-20T06:14:33;2.03;;;1.70;;
11006;SDS011;8186;57.652;11.968;2022-11-20T06:17:02;1.83;;;1.50;;
11006;SDS011;8186;57.652;11.968;2022-11-20T06:19:29;1.70;;;1.40;;
11006;SDS011;8186;57.652;11.968;2022-11-20T06:21:56;2.77;;;1.50;;
11006;SDS011;8186;57.652;11.968;2022-11-20T06:24:23;2.00;;;1.50;;
11006;SDS011;8186;57.652;11.968;2022-11-20T06:26:51;3.77;;;1.50;;
11006;SDS011;8186;57.652;11.968;2022-11-20T06:29:18;1.63;;;1.50;;
11006;SDS011;8186;57.652;11.968;2022-11-20T06:31:45;2.10;;;1.50;;
11006;SDS011;8186;57.652;11.968;2022-11-20T06:34:14;1.40;;;1.30;;
11006;SDS011;8186;57.652;11.968;2022-11-20T06:36:41;1.80;;;1.70;;
11006;SDS011;8186;57.652;11.968;2022-11-20T06:39:08;1.93;;;1.70;;
11006;SDS011;8186;57.652;11.968;2022-11-20T06:41:38;1.60;;;1.50;;
11006;SDS011;8186;57.652;11.968;2022-11-20T06:44:05;1.70;;;1.60;;
11006;SDS011;8186;57.652;11.968;2022-11-20T06:46:33;1.63;;;1.53;;
11006;SDS011;8186;57.652;11.968;2022-11-20T06:49:03;1.97;;;1.60;;
11006;SDS011;8186;57.652;11.968;2022-11-20T06:51:32;1.70;;;1.60;;
11006;SDS011;8186;57.652;11.968;2022-11-20T06:53:59;1.30;;;1.20;;
11006;SDS011;8186;57.652;11.968;2022-11-20T06:56:27;3.03;;;1.40;;
11006;SDS011;8186;57.652;11.968;2022-11-20T06:58:54;1.43;;;1.33;;
11006;SDS011;8186;57.652;11.968;2022-11-20T07:01:21;1.50;;;1.30;;
11006;SDS011;8186;57.652;11.968;2022-11-20T07:03:48;1.57;;;1.47;;
11006;SDS011;8186;57.652;11.968;2022-11-20T07:06:18;1.60;;;1.30;;
11006;SDS011;8186;57.652;11.968;2022-11-20T07:08:46;1.73;;;1.37;;
11006;SDS011;8186;57.652;11.968;2022-11-20T07:11:14;2.27;;;1.90;;
11006;SDS011;8186;57.652;11.968;2022-11-20T07:13:41;1.60;;;1.50;;
11006;SDS011;8186;57.652;11.968;2022-11-20T07:16:08;2.00;;;1.30;;
11006;SDS011;8186;57.652;11.968;2022-11-20T07:18:36;2.73;;;1.50;;
11006;SDS011;8186;57.652;11.968;2022-11-20T07:21:09;3.10;;;2.30;;
11006;SDS011;8186;57.652;11.968;2022-11-20T07:23:37;2.00;;;1.80;;
11006;SDS011;8186;57.652;11.968;2022-11-20T07:26:06;3.00;;;1.93;;
11006;SDS011;8186;57.652;11.968;2022-11-20T07:28:35;2.60;;;1.93;;
11006;SDS011;8186;57.652;11.968;2022-11-20T07:31:03;2.97;;;2.53;;
11006;SDS011;8186;57.652;11.968;2022-11-20T07:33:31;2.97;;;2.20;;
11006;SDS011;8186;57.652;11.968;2022-11-20T07:35:59;2.90;;;2.30;;
11006;SDS011;8186;57.652;11.968;2022-11-20T07:38:28;1.73;;;1.50;;
11006;SDS011;8186;57.652;11.968;2022-11-20T07:40:55;2.20;;;1.87;;
11006;SDS011;8186;57.652;11.968;2022-11-20T07:43:24;1.47;;;1.30;;
11006;SDS011;8186;57.652;11.968;2022-11-20T07:45:51;2.00;;;1.80;;
11006;SDS011;8186;57.652;11.968;2022-11-20T07:48:19;1.97;;;1.53;;
11006;SDS011;8186;57.652;11.968;2022-11-20T07:50:49;2.20;;;1.63;;
11006;SDS011;8186;57.652;11.968;2022-11-20T07:53:16;2.70;;;1.80;;
11006;SDS011;8186;57.652;11.968;2022-11-20T07:55:45;2.47;;;1.77;;
11006;SDS011;8186;57.652;11.968;2022-11-20T07:58:15;2.03;;;1.63;;
11006;SDS011;8186;57.652;11.968;2022-11-20T08:00:44;1.93;;;1.73;;
11006;SDS011;8186;57.652;11.968;2022-11-20T08:03:11;2.00;;;1.70;;
11006;SDS011;8186;57.652;11.968;2022-11-20T08:05:38;2.17;;;1.83;;
11006;SDS011;8186;57.652;11.968;2022-11-20T08:08:06;1.77;;;1.47;;
11006;SDS011;8186;57.652;11.968;2022-11-20T08:10:36;1.57;;;1.47;;
11006;SDS011;8186;57.652;11.968;2022-11-20T08:13:04;1.90;;;1.40;;
11006;SDS011;8186;57.652;11.968;2022-11-20T08:15:51;1.47;;;1.37;;
11006;SDS011;8186;57.652;11.968;2022-11-20T08:18:18;2.87;;;1.33;;
11006;SDS011;8186;57.652;11.968;2022-11-20T08:20:45;1.70;;;1.40;;
11006;SDS011;8186;57.652;11.968;2022-11-20T08:23:12;1.50;;;1.40;;
11006;SDS011;8186;57.652;11.968;2022-11-20T08:25:40;2.17;;;1.33;;
11006;SDS011;8186;57.652;11.968;2022-11-20T08:28:09;1.80;;;1.57;;
11006;SDS011;8186;57.652;11.968;2022-11-20T08:30:36;1.60;;;1.50;;
11006;SDS011;8186;57.652;11.968;2022-11-20T08:33:06;2.17;;;1.40;;
11006;SDS011;8186;57.652;11.968;2022-11-20T08:35:34;1.97;;;1.47;;
11006;SDS011;8186;57.652;11.968;2022-11-20T08:38:03;6.30;;;1.97;;
11006;SDS011;8186;57.652;11.968;2022-11-20T08:40:30;1.80;;;1.37;;
11006;SDS011;8186;57.652;11.968;2022-11-20T08:42:57;1.73;;;1.20;;
11006;SDS011;8186;57.652;11.968;2022-11-20T08:45:24;1.70;;;1.60;;
11006;SDS011;8186;57.652;11.968;2022-11-20T08:47:51;2.17;;;1.30;;
11006;SDS011;8186;57.652;11.968;2022-11-20T08:50:20;1.80;;;1.20;;
11006;SDS011;8186;57.652;11.968;2022-11-20T08:52:47;1.57;;;1.13;;
11006;SDS011;8186;57.652;11.968;2022-11-20T08:55:14;1.40;;;1.30;;
11006;SDS011;8186;57.652;11.968;2022-11-20T08:57:41;1.83;;;1.10;;
11006;SDS011;8186;57.652;11.968;2022-11-20T09:00:09;1.27;;;1.00;;
11006;SDS011;8186;57.652;11.968;2022-11-20T09:02:37;1.30;;;1.10;;
11006;SDS011;8186;57.652;11.968;2022-11-20T09:05:04;1.80;;;1.23;;
11006;SDS011;8186;57.652;11.968;2022-11-20T09:07:33;1.43;;;1.20;;
11006;SDS011;8186;57.652;11.968;2022-11-20T09:10:01;1.20;;;1.10;;
11006;SDS011;8186;57.652;11.968;2022-11-20T09:12:28;1.83;;;1.07;;
11006;SDS011;8186;57.652;11.968;2022-11-20T09:14:55;1.47;;;1.30;;
11006;SDS011;8186;57.652;11.968;2022-11-20T09:17:22;1.40;;;1.00;;
11006;SDS011;8186;57.652;11.968;2022-11-20T09:19:50;1.20;;;1.10;;
11006;SDS011;8186;57.652;11.968;2022-11-20T09:22:19;1.37;;;1.07;;
11006;SDS011;8186;57.652;11.968;2022-11-20T09:24:48;1.13;;;0.97;;
11006;SDS011;8186;57.652;11.968;2022-11-20T09:27:15;1.10;;;0.97;;
11006;SDS011;8186;57.652;11.968;2022-11-20T09:29:45;1.10;;;1.00;;
11006;SDS011;8186;57.652;11.968;2022-11-20T09:32:13;2.53;;;1.23;;
11006;SDS011;8186;57.652;11.968;2022-11-20T09:34:40;1.63;;;1.30;;
11006;SDS011;8186;57.652;11.968;2022-11-20T09:37:07;3.60;;;1.30;;
11006;SDS011;8186;57.652;11.968;2022-11-20T09:39:34;1.27;;;1.17;;
11006;SDS011;8186;57.652;11.968;2022-11-20T09:42:25;1.20;;;1.00;;
11006;SDS011;8186;57.652;11.968;2022-11-20T09:45:02;1.30;;;1.20;;
11006;SDS011;8186;57.652;11.968;2022-11-20T09:47:39;2.13;;;1.20;;
11006;SDS011;8186;57.652;11.968;2022-11-20T09:50:19;1.50;;;1.20;;
11006;SDS011;8186;57.652;11.968;2022-11-20T09:52:56;1.83;;;1.23;;
11006;SDS011;8186;57.652;11.968;2022-11-20T09:55:36;1.17;;;0.90;;
11006;SDS011;8186;57.652;11.968;2022-11-20T09:58:07;1.23;;;1.00;;
11006;SDS011;8186;57.652;11.968;2022-11-20T10:00:38;1.10;;;1.00;;
11006;SDS011;8186;57.652;11.968;2022-11-20T10:03:06;1.57;;;1.33;;
11006;SDS011;8186;57.652;11.968;2022-11-20T10:05:40;1.50;;;1.10;;
11006;SDS011;8186;57.652;11.968;2022-11-20T10:08:12;1.73;;;1.07;;
11006;SDS011;8186;57.652;11.968;2022-11-20T10:10:44;1.10;;;1.00;;
11006;SDS011;8186;57.652;11.968;2022-11-20T10:13:33;1.60;;;1.20;;
11006;SDS011;8186;57.652;11.968;2022-11-20T10:16:09;1.27;;;0.97;;
11006;SDS011;8186;57.652;11.968;2022-11-20T10:18:48;1.07;;;0.97;;
11006;SDS011;8186;57.652;11.968;2022-11-20T10:21:26;1.77;;;1.20;;
11006;SDS011;8186;57.652;11.968;2022-11-20T10:24:15;1.33;;;1.13;;
11006;SDS011;8186;57.652;11.968;2022-11-20T10:27:14;1.57;;;1.10;;
11006;SDS011;8186;57.652;11.968;2022-11-20T10:29:57;1.57;;;1.27;;
11006;SDS011;8186;57.652;11.968;2022-11-20T10:32:28;1.30;;;1.10;;
11006;SDS011;8186;57.652;11.968;2022-11-20T10:34:59;1.23;;;1.13;;
11006;SDS011;8186;57.652;11.968;2022-11-20T10:37:27;3.03;;;1.10;;
11006;SDS011;8186;57.652;11.968;2022-11-20T10:39:56;1.20;;;1.10;;
11006;SDS011;8186;57.652;11.968;2022-11-20T10:42:28;4.40;;;1.60;;
11006;SDS011;8186;57.652;11.968;2022-11-20T10:45:04;1.57;;;1.47;;
11006;SDS011;8186;57.652;11.968;2022-11-20T10:47:40;1.07;;;1.00;;
11006;SDS011;8186;57.652;11.968;2022-11-20T10:50:09;1.20;;;1.10;;
11006;SDS011;8186;57.652;11.968;2022-11-20T10:52:41;5.80;;;1.77;;
11006;SDS011;8186;57.652;11.968;2022-11-20T10:55:17;1.20;;;1.00;;
11006;SDS011;8186;57.652;11.968;2022-11-20T10:57:53;1.33;;;1.13;;
11006;SDS011;8186;57.652;11.968;2022-11-20T11:00:25;2.30;;;1.50;;
11006;SDS011;8186;57.652;11.968;2022-11-20T11:02:53;1.30;;;1.20;;
11006;SDS011;8186;57.652;11.968;2022-11-20T11:05:25;1.40;;;1.13;;
11006;SDS011;8186;57.652;11.968;2022-11-20T11:07:58;1.50;;;1.27;;
11006;SDS011;8186;57.652;11.968;2022-11-20T11:10:27;1.53;;;1.03;;
11006;SDS011;8186;57.652;11.968;2022-11-20T11:12:59;1.40;;;1.10;;
11006;SDS011;8186;57.652;11.968;2022-11-20T11:15:29;1.23;;;1.13;;
11006;SDS011;8186;57.652;11.968;2022-11-20T11:18:03;1.37;;;1.13;;
11006;SDS011;8186;57.652;11.968;2022-11-20T11:20:31;1.40;;;1.30;;
11006;SDS011;8186;57.652;11.968;2022-11-20T11:22:59;1.37;;;1.10;;
11006;SDS011;8186;57.652;11.968;2022-11-20T11:25:28;1.30;;;1.20;;
11006;SDS011;8186;57.652;11.968;2022-11-20T11:27:57;1.73;;;1.00;;
11006;SDS011;8186;57.652;11.968;2022-11-20T11:30:25;1.10;;;0.90;;
11006;SDS011;8186;57.652;11.968;2022-11-20T11:33:04;1.20;;;1.10;;
11006;SDS011;8186;57.652;11.968;2022-11-20T11:35:33;1.10;;;1.00;;
11006;SDS011;8186;57.652;11.968;2022-11-20T11:38:04;0.80;;;0.80;;
11006;SDS011;8186;57.652;11.968;2022-11-20T11:40:32;1.83;;;1.53;;
11006;SDS011;8186;57.652;11.968;2022-11-20T11:43:02;1.10;;;1.00;;
11006;SDS011;8186;57.652;11.968;2022-11-20T11:45:54;2.10;;;1.10;;
11006;SDS011;8186;57.652;11.968;2022-11-20T11:48:20;1.20;;;1.10;;
11006;SDS011;8186;57.652;11.968;2022-11-20T11:50:48;1.40;;;1.30;;
11006;SDS011;8186;57.652;11.968;2022-11-20T11:53:16;0.70;;;0.70;;
11006;SDS011;8186;57.652;11.968;2022-11-20T11:55:45;1.10;;;0.93;;
11006;SDS011;8186;57.652;11.968;2022-11-20T11:58:19;1.27;;;1.17;;
11006;SDS011;8186;57.652;11.968;2022-11-20T12:00:56;1.53;;;1.10;;
11006;SDS011;8186;57.652;11.968;2022-11-20T12:03:27;2.53;;;1.03;;
11006;SDS011;8186;57.652;11.968;2022-11-20T12:05:57;2.10;;;1.37;;
11006;SDS011;8186;57.652;11.968;2022-11-20T12:10:55;1.10;;;0.93;;
11006;SDS011;8186;57.652;11.968;2022-11-20T12:16:13;1.20;;;1.10;;
11006;SDS011;8186;57.652;11.968;2022-11-20T12:18:41;1.07;;;0.97;;
11006;SDS011;8186;57.652;11.968;2022-11-20T12:21:15;2.70;;;1.10;;
11006;SDS011;8186;57.652;11.968;2022-11-20T12:23:49;1.20;;;1.10;;
11006;SDS011;8186;57.652;11.968;2022-11-20T12:26:25;1.23;;;0.80;;
11006;SDS011;8186;57.652;11.968;2022-11-20T12:29:02;1.30;;;0.77;;
11006;SDS011;8186;57.652;11.968;2022-11-20T12:31:47;1.00;;;0.90;;
11006;SDS011;8186;57.652;11.968;2022-11-20T12:34:27;2.17;;;1.00;;
11006;SDS011;8186;57.652;11.968;2022-11-20T12:37:01;0.90;;;0.80;;
11006;SDS011;8186;57.652;11.968;2022-11-20T12:39:37;2.60;;;1.10;;
11006;SDS011;8186;57.652;11.968;2022-11-20T12:42:14;0.80;;;0.80;;
11006;SDS011;8186;57.652;11.968;2022-11-20T12:45:10;1.20;;;0.90;;
11006;SDS011;8186;57.652;11.968;2022-11-20T12:48:10;1.03;;;0.80;;
11006;SDS011;8186;57.652;11.968;2022-11-20T12:50:54;1.27;;;1.17;;
11006;SDS011;8186;57.652;11.968;2022-11-20T12:53:36;0.87;;;0.87;;
11006;SDS011;8186;57.652;11.968;2022-11-20T12:56:11;1.20;;;1.10;;
11006;SDS011;8186;57.652;11.968;2022-11-20T12:58:47;11.00;;;1.30;;
11006;SDS011;8186;57.652;11.968;2022-11-20T13:01:21;1.87;;;0.90;;
11006;SDS011;8186;57.652;11.968;2022-11-20T13:04:12;1.07;;;0.93;;
11006;SDS011;8186;57.652;11.968;2022-11-20T13:06:44;2.80;;;1.10;;
11006;SDS011;8186;57.652;11.968;2022-11-20T13:09:12;1.10;;;0.93;;
11006;SDS011;8186;57.652;11.968;2022-11-20T13:11:41;1.10;;;1.00;;
11006;SDS011;8186;57.652;11.968;2022-11-20T13:14:18;0.97;;;0.87;;
11006;SDS011;8186;57.652;11.968;2022-11-20T13:16:52;1.07;;;0.70;;
11006;SDS011;8186;57.652;11.968;2022-11-20T13:19:22;1.10;;;0.97;;
11006;SDS011;8186;57.652;11.968;2022-11-20T13:21:49;1.07;;;0.97;;
11006;SDS011;8186;57.652;11.968;2022-11-20T13:24:20;1.00;;;0.90;;
11006;SDS011;8186;57.652;11.968;2022-11-20T13:26:59;0.90;;;0.80;;
11006;SDS011;8186;57.652;11.968;2022-11-20T13:29:27;3.60;;;1.93;;
11006;SDS011;8186;57.652;11.968;2022-11-20T13:32:01;1.33;;;0.87;;
11006;SDS011;8186;57.652;11.968;2022-11-20T13:34:31;1.30;;;1.10;;
11006;SDS011;8186;57.652;11.968;2022-11-20T13:36:58;1.30;;;1.10;;
11006;SDS011;8186;57.652;11.968;2022-11-20T13:39:29;1.10;;;1.00;;
11006;SDS011;8186;57.652;11.968;2022-11-20T13:41:58;1.37;;;1.00;;
11006;SDS011;8186;57.652;11.968;2022-11-20T13:44:27;1.40;;;0.90;;
11006;SDS011;8186;57.652;11.968;2022-11-20T13:46:56;1.33;;;0.90;;
11006;SDS011;8186;57.652;11.968;2022-11-20T13:49:25;2.23;;;1.10;;
11006;SDS011;8186;57.652;11.968;2022-11-20T13:51:56;1.20;;;1.00;;
11006;SDS011;8186;57.652;11.968;2022-11-20T14:00:28;1.37;;;1.17;;
11006;SDS011;8186;57.652;11.968;2022-11-20T14:02:59;1.00;;;0.90;;
11006;SDS011;8186;57.652;11.968;2022-11-20T14:05:38;1.63;;;1.20;;
11006;SDS011;8186;57.652;11.968;2022-11-20T14:08:13;1.70;;;1.30;;
11006;SDS011;8186;57.652;11.968;2022-11-20T14:10:40;1.73;;;1.20;;
11006;SDS011;8186;57.652;11.968;2022-11-20T14:13:10;1.17;;;1.07;;
11006;SDS011;8186;57.652;11.968;2022-11-20T14:15:41;2.37;;;0.90;;
11006;SDS011;8186;57.652;11.968;2022-11-20T14:18:12;1.00;;;0.90;;
11006;SDS011;8186;57.652;11.968;2022-11-20T14:20:39;1.80;;;1.10;;
11006;SDS011;8186;57.652;11.968;2022-11-20T14:23:08;2.00;;;0.83;;
11006;SDS011;8186;57.652;11.968;2022-11-20T14:25:37;1.23;;;1.00;;
11006;SDS011;8186;57.652;11.968;2022-11-20T14:28:10;0.87;;;0.87;;
11006;SDS011;8186;57.652;11.968;2022-11-20T14:30:39;3.20;;;1.30;;
11006;SDS011;8186;57.652;11.968;2022-11-20T14:33:09;1.13;;;0.87;;
11006;SDS011;8186;57.652;11.968;2022-11-20T14:35:40;1.80;;;1.40;;
11006;SDS011;8186;57.652;11.968;2022-11-20T14:38:11;1.43;;;1.10;;
11006;SDS011;8186;57.652;11.968;2022-11-20T14:40:41;1.17;;;1.07;;
11006;SDS011;8186;57.652;11.968;2022-11-20T14:43:16;1.00;;;0.90;;
11006;SDS011;8186;57.652;11.968;2022-11-20T14:45:45;1.13;;;0.90;;
11006;SDS011;8186;57.652;11.968;2022-11-20T14:48:19;1.40;;;1.20;;
11006;SDS011;8186;57.652;11.968;2022-11-20T14:50:48;1.60;;;1.10;;
11006;SDS011;8186;57.652;11.968;2022-11-20T14:53:21;1.10;;;0.93;;
11006;SDS011;8186;57.652;11.968;2022-11-20T14:55:55;1.10;;;0.90;;
11006;SDS011;8186;57.652;11.968;2022-11-20T14:58:24;1.30;;;1.10;;
11006;SDS011;8186;57.652;11.968;2022-11-20T15:00:59;1.17;;;1.07;;
11006;SDS011;8186;57.652;11.968;2022-11-20T15:03:33;0.80;;;0.80;;
11006;SDS011;8186;57.652;11.968;2022-11-20T15:06:00;1.07;;;0.97;;
11006;SDS011;8186;57.652;11.968;2022-11-20T15:08:27;1.43;;;1.20;;
11006;SDS011;8186;57.652;11.968;2022-11-20T15:10:56;1.27;;;1.17;;
11006;SDS011;8186;57.652;11.968;2022-11-20T15:13:24;1.03;;;0.93;;
11006;SDS011;8186;57.652;11.968;2022-11-20T15:15:53;1.07;;;0.97;;
11006;SDS011;8186;57.652;11.968;2022-11-20T15:18:21;1.17;;;1.00;;